Time;durP1;ratioP1;P1;durP2;ratioP2;P2;SDS_P1;SDS_P2;PMS_P1;PMS_P2;Temp;Humidity;BMP_temperature;BMP_pressure;BME280_temperature;BME280_humidity;BME280_pressure;Samples;Min_cycle;Max_cycle;Signal;HPM_P1;HPM_P2
2022/10/16 00:02:03;;;;;;;9.05;2.30;;;;;;;;;;4969697;28;20415;-70
2022/10/16 00:04:29;;;;;;;8.82;1.67;;;;;;;;;;4968307;28;20439;-69
2022/10/16 00:06:55;;;;;;;12.55;1.90;;;;;;;;;;4969535;28;20543;-70
2022/10/16 00:09:21;;;;;;;15.30;2.15;;;;;;;;;;4955168;28;20039;-69
2022/10/16 00:11:47;;;;;;;12.43;1.65;;;;;;;;;;4956519;28;20046;-69
2022/10/16 00:14:14;;;;;;;4.72;1.60;;;;;;;;;;4968959;28;20062;-70
2022/10/16 00:16:40;;;;;;;8.02;2.25;;;;;;;;;;4970960;28;20871;-69
2022/10/16 00:19:07;;;;;;;8.27;1.50;;;;;;;;;;4963624;28;20038;-70
2022/10/16 00:21:33;;;;;;;8.25;1.60;;;;;;;;;;4971997;28;20030;-69
2022/10/16 00:24:01;;;;;;;16.67;2.58;;;;;;;;;;4971230;28;20038;-70
2022/10/16 00:26:27;;;;;;;7.07;1.98;;;;;;;;;;4969811;28;20026;-71
2022/10/16 00:28:54;;;;;;;9.40;1.77;;;;;;;;;;4967882;28;20023;-69
2022/10/16 00:31:21;;;;;;;5.13;1.45;;;;;;;;;;4972126;28;20026;-69
2022/10/16 00:33:48;;;;;;;7.82;1.50;;;;;;;;;;4970297;28;20121;-69
2022/10/16 00:36:15;;;;;;;4.32;1.30;;;;;;;;;;4971286;28;20026;-69
2022/10/16 00:38:41;;;;;;;9.77;1.40;;;;;;;;;;4967932;28;20058;-70
2022/10/16 00:41:08;;;;;;;7.68;1.75;;;;;;;;;;4972299;28;20046;-69
2022/10/16 00:43:42;;;;;;;5.78;1.25;;;;;;;;;;4969267;28;20491;-69
2022/10/16 00:46:11;;;;;;;9.77;1.50;;;;;;;;;;4972569;28;20042;-69
2022/10/16 00:48:37;;;;;;;6.05;1.70;;;;;;;;;;4969259;28;20121;-69
2022/10/16 00:51:03;;;;;;;7.13;1.95;;;;;;;;;;4969735;28;20027;-70
2022/10/16 00:53:29;;;;;;;5.47;1.48;;;;;;;;;;4968938;28;20026;-69
2022/10/16 00:55:55;;;;;;;7.80;1.40;;;;;;;;;;4969692;28;20031;-69
2022/10/16 00:58:21;;;;;;;5.45;1.35;;;;;;;;;;4966654;28;20042;-69
2022/10/16 01:00:47;;;;;;;8.15;1.77;;;;;;;;;;4978477;28;20043;-69
2022/10/16 01:03:27;;;;;;;5.35;1.33;;;;;;;;;;4967282;28;20027;-69
2022/10/16 01:06:03;;;;;;;9.35;1.88;;;;;;;;;;4957381;28;20448;-69
2022/10/16 01:08:35;;;;;;;8.00;1.52;;;;;;;;;;4962535;28;20078;-69
2022/10/16 01:11:07;;;;;;;8.93;1.23;;;;;;;;;;4971460;28;20039;-69
2022/10/16 01:13:37;;;;;;;14.55;2.10;;;;;;;;;;4969855;28;20043;-70
2022/10/16 01:16:03;;;;;;;5.38;1.25;;;;;;;;;;4967972;28;20027;-69
2022/10/16 01:18:38;;;;;;;7.35;1.77;;;;;;;;;;4970145;28;20085;-69
2022/10/16 01:21:05;;;;;;;3.58;1.15;;;;;;;;;;4968692;28;20133;-71
2022/10/16 01:23:52;;;;;;;5.80;0.98;;;;;;;;;;4989826;28;20061;-69
2022/10/16 01:26:30;;;;;;;3.15;1.30;;;;;;;;;;4973267;28;20480;-69
2022/10/16 01:29:15;;;;;;;10.57;2.47;;;;;;;;;;4965881;28;20051;-68
2022/10/16 01:31:43;;;;;;;6.72;1.55;;;;;;;;;;4973876;28;20042;-70
2022/10/16 01:34:13;;;;;;;6.55;1.83;;;;;;;;;;4984764;28;20027;-69
2022/10/16 01:36:40;;;;;;;6.97;1.77;;;;;;;;;;4972021;28;20138;-69
2022/10/16 01:39:07;;;;;;;5.07;2.53;;;;;;;;;;4990215;28;20034;-70
2022/10/16 01:41:41;;;;;;;6.35;1.88;;;;;;;;;;4971308;28;20062;-69
2022/10/16 01:44:11;;;;;;;5.75;1.52;;;;;;;;;;4974499;28;20391;-69
2022/10/16 01:46:38;;;;;;;7.75;2.15;;;;;;;;;;4972586;28;20058;-71
2022/10/16 01:49:05;;;;;;;4.93;1.73;;;;;;;;;;4964280;28;20468;-69
2022/10/16 01:51:32;;;;;;;4.63;1.17;;;;;;;;;;4972557;28;20480;-71
2022/10/16 01:54:00;;;;;;;7.30;1.88;;;;;;;;;;4965719;28;20089;-70
2022/10/16 01:56:27;;;;;;;6.85;1.42;;;;;;;;;;4972823;28;20026;-70
2022/10/16 01:58:56;;;;;;;3.83;1.42;;;;;;;;;;4974416;28;20038;-70
2022/10/16 02:01:23;;;;;;;3.72;1.70;;;;;;;;;;4978543;28;20086;-72
2022/10/16 02:03:52;;;;;;;5.28;1.50;;;;;;;;;;4987520;28;20109;-71
2022/10/16 02:06:18;;;;;;;9.73;1.67;;;;;;;;;;4970228;28;20391;-72
2022/10/16 02:08:44;;;;;;;7.53;1.55;;;;;;;;;;4973119;28;20551;-71
2022/10/16 02:11:11;;;;;;;6.10;2.03;;;;;;;;;;4972935;28;20038;-71
2022/10/16 02:13:53;;;;;;;7.63;1.42;;;;;;;;;;4968147;28;20457;-70
2022/10/16 02:16:19;;;;;;;4.55;1.63;;;;;;;;;;4970075;28;20093;-70
2022/10/16 02:18:45;;;;;;;7.65;1.50;;;;;;;;;;4974627;28;20039;-70
2022/10/16 02:21:29;;;;;;;5.72;1.60;;;;;;;;;;4972858;28;20031;-72
2022/10/16 02:24:02;;;;;;;11.90;1.70;;;;;;;;;;4965794;28;20360;-73
2022/10/16 02:26:31;;;;;;;2.92;1.20;;;;;;;;;;4970220;28;20031;-70
2022/10/16 02:29:01;;;;;;;4.20;1.70;;;;;;;;;;4973545;28;20030;-71
2022/10/16 02:31:29;;;;;;;6.07;2.38;;;;;;;;;;4976498;28;20022;-71
2022/10/16 02:33:57;;;;;;;4.15;1.50;;;;;;;;;;4972714;28;20420;-70
2022/10/16 02:36:23;;;;;;;6.75;1.45;;;;;;;;;;4972059;28;20027;-72
2022/10/16 02:38:49;;;;;;;6.05;1.58;;;;;;;;;;4972077;28;20042;-71
2022/10/16 02:41:16;;;;;;;9.75;2.20;;;;;;;;;;4971858;28;20062;-71
2022/10/16 02:43:42;;;;;;;3.40;1.13;;;;;;;;;;4971538;28;20022;-72
2022/10/16 02:46:08;;;;;;;7.15;1.33;;;;;;;;;;4973631;28;20035;-72
2022/10/16 02:48:35;;;;;;;5.78;1.42;;;;;;;;;;4968153;28;20046;-70
2022/10/16 02:51:01;;;;;;;6.38;1.73;;;;;;;;;;4972504;28;20037;-71
2022/10/16 02:53:27;;;;;;;5.18;1.27;;;;;;;;;;4969570;28;20046;-72
2022/10/16 02:55:53;;;;;;;6.03;1.30;;;;;;;;;;4961499;28;20027;-72
2022/10/16 02:58:19;;;;;;;4.97;1.70;;;;;;;;;;4967752;28;20039;-70
2022/10/16 03:00:46;;;;;;;8.90;1.77;;;;;;;;;;4982110;28;20042;-70
2022/10/16 03:03:12;;;;;;;4.68;1.45;;;;;;;;;;4970617;28;20046;-71
2022/10/16 03:05:38;;;;;;;9.30;1.60;;;;;;;;;;4972701;28;20035;-71
2022/10/16 03:08:04;;;;;;;10.18;1.92;;;;;;;;;;4957364;28;20079;-70
2022/10/16 03:10:30;;;;;;;7.72;1.42;;;;;;;;;;4972825;28;20070;-71
2022/10/16 03:12:56;;;;;;;9.57;2.33;;;;;;;;;;4969222;28;20070;-71
2022/10/16 03:15:22;;;;;;;7.50;1.40;;;;;;;;;;4972544;28;20082;-69
2022/10/16 03:17:48;;;;;;;4.78;1.70;;;;;;;;;;4973441;28;20392;-71
2022/10/16 03:20:14;;;;;;;8.35;1.85;;;;;;;;;;4971016;28;20034;-70
2022/10/16 03:22:40;;;;;;;4.53;1.45;;;;;;;;;;4972881;28;20121;-72
2022/10/16 03:25:07;;;;;;;3.65;1.63;;;;;;;;;;4965853;28;20039;-71
2022/10/16 03:27:33;;;;;;;4.47;1.50;;;;;;;;;;4945011;28;20043;-70
2022/10/16 03:29:59;;;;;;;1.85;1.10;;;;;;;;;;4967125;28;20043;-71
2022/10/16 03:32:25;;;;;;;8.35;2.78;;;;;;;;;;4962380;28;20035;-70
2022/10/16 03:34:52;;;;;;;11.88;3.78;;;;;;;;;;4967616;28;20042;-70
2022/10/16 03:37:18;;;;;;;7.88;1.52;;;;;;;;;;4969521;28;20092;-70
2022/10/16 03:39:44;;;;;;;3.17;1.10;;;;;;;;;;4969149;28;20041;-70
2022/10/16 03:42:10;;;;;;;10.20;1.33;;;;;;;;;;4966811;28;20038;-70
2022/10/16 03:44:37;;;;;;;2.78;1.52;;;;;;;;;;4969337;28;20031;-70
2022/10/16 03:47:03;;;;;;;3.15;1.45;;;;;;;;;;4972330;28;20121;-70
2022/10/16 03:49:29;;;;;;;4.78;1.40;;;;;;;;;;4985008;28;20484;-70
2022/10/16 03:51:55;;;;;;;7.03;3.55;;;;;;;;;;4971388;28;20038;-72
2022/10/16 03:54:22;;;;;;;6.50;1.90;;;;;;;;;;4971131;28;20633;-72
2022/10/16 03:56:48;;;;;;;5.35;1.90;;;;;;;;;;4967737;28;20058;-70
2022/10/16 03:59:14;;;;;;;6.32;2.95;;;;;;;;;;4966746;28;20377;-70
2022/10/16 04:01:40;;;;;;;4.18;1.38;;;;;;;;;;4969657;28;20037;-71
2022/10/16 04:04:06;;;;;;;5.13;1.65;;;;;;;;;;4968862;28;20039;-70
2022/10/16 04:06:32;;;;;;;4.47;1.30;;;;;;;;;;4969237;28;20306;-71
2022/10/16 04:08:58;;;;;;;10.27;1.75;;;;;;;;;;4972098;28;20392;-71
2022/10/16 04:11:24;;;;;;;3.05;1.40;;;;;;;;;;4970683;28;20039;-70
2022/10/16 04:13:50;;;;;;;5.55;1.98;;;;;;;;;;4987220;28;20250;-70
2022/10/16 04:16:16;;;;;;;3.33;2.00;;;;;;;;;;4966769;28;20081;-70
2022/10/16 04:18:42;;;;;;;4.93;1.88;;;;;;;;;;4972461;28;20042;-71
2022/10/16 04:21:09;;;;;;;4.85;1.83;;;;;;;;;;4970528;28;20031;-70
2022/10/16 04:23:35;;;;;;;6.70;1.73;;;;;;;;;;4971434;28;20015;-70
2022/10/16 04:26:01;;;;;;;2.78;1.92;;;;;;;;;;4983533;28;20067;-71
2022/10/16 04:28:27;;;;;;;3.65;1.48;;;;;;;;;;4971259;28;20039;-73
2022/10/16 04:30:53;;;;;;;5.30;1.50;;;;;;;;;;4970438;28;20039;-71
2022/10/16 04:33:19;;;;;;;7.80;2.30;;;;;;;;;;4970299;28;20440;-69
2022/10/16 04:35:45;;;;;;;5.43;1.73;;;;;;;;;;4971572;28;20559;-70
2022/10/16 04:38:12;;;;;;;6.82;1.48;;;;;;;;;;4969442;28;20510;-71
2022/10/16 04:40:38;;;;;;;4.40;1.55;;;;;;;;;;4959138;28;20058;-70
2022/10/16 04:43:05;;;;;;;4.95;1.70;;;;;;;;;;4967307;28;20034;-70
2022/10/16 04:45:31;;;;;;;4.30;1.60;;;;;;;;;;4971617;28;20046;-70
2022/10/16 04:47:58;;;;;;;6.50;1.30;;;;;;;;;;4969808;28;20050;-71
2022/10/16 04:50:24;;;;;;;4.32;1.23;;;;;;;;;;4968390;28;20031;-72
2022/10/16 04:52:50;;;;;;;3.05;1.50;;;;;;;;;;4969904;28;20121;-70
2022/10/16 04:55:16;;;;;;;5.75;1.70;;;;;;;;;;4959121;28;20231;-70
2022/10/16 04:57:42;;;;;;;2.53;1.38;;;;;;;;;;4962750;28;20039;-69
2022/10/16 05:00:09;;;;;;;5.95;1.63;;;;;;;;;;4974020;28;20046;-70
2022/10/16 05:02:35;;;;;;;3.67;1.58;;;;;;;;;;4965870;28;20045;-70
2022/10/16 05:05:01;;;;;;;6.20;1.70;;;;;;;;;;4972622;28;20085;-71
2022/10/16 05:07:27;;;;;;;6.45;2.30;;;;;;;;;;4973805;28;20057;-70
2022/10/16 05:09:53;;;;;;;4.15;1.92;;;;;;;;;;4975360;28;20038;-71
2022/10/16 05:12:19;;;;;;;4.15;2.05;;;;;;;;;;4972097;28;20361;-70
2022/10/16 05:14:45;;;;;;;5.45;1.92;;;;;;;;;;4974139;28;20404;-71
2022/10/16 05:17:11;;;;;;;6.03;2.05;;;;;;;;;;4975346;28;20122;-71
2022/10/16 05:19:37;;;;;;;6.10;2.15;;;;;;;;;;4970330;28;20023;-72
2022/10/16 05:22:03;;;;;;;5.38;1.98;;;;;;;;;;4958880;28;20030;-71
2022/10/16 05:24:29;;;;;;;4.97;2.38;;;;;;;;;;4972850;28;20061;-70
2022/10/16 05:26:56;;;;;;;4.78;2.60;;;;;;;;;;4973070;28;20038;-71
2022/10/16 05:29:22;;;;;;;4.72;2.28;;;;;;;;;;4972149;28;20089;-71
2022/10/16 05:31:50;;;;;;;5.97;2.60;;;;;;;;;;4968145;28;20035;-71
2022/10/16 05:34:16;;;;;;;5.22;2.70;;;;;;;;;;4973187;28;20105;-71
2022/10/16 05:36:45;;;;;;;6.20;2.55;;;;;;;;;;4974387;28;20522;-70
2022/10/16 05:39:11;;;;;;;3.90;2.08;;;;;;;;;;4987481;28;20279;-72
2022/10/16 05:41:37;;;;;;;4.65;1.92;;;;;;;;;;4971104;28;20149;-70
2022/10/16 05:44:06;;;;;;;5.22;2.25;;;;;;;;;;4985468;28;20031;-71
2022/10/16 05:46:33;;;;;;;6.40;2.70;;;;;;;;;;4973999;28;20368;-71
2022/10/16 05:48:59;;;;;;;7.72;2.72;;;;;;;;;;4973191;28;20059;-71
2022/10/16 05:51:25;;;;;;;4.20;2.47;;;;;;;;;;4984117;28;20062;-70
2022/10/16 05:53:52;;;;;;;7.28;2.63;;;;;;;;;;4971556;28;20648;-70
2022/10/16 05:56:19;;;;;;;3.28;2.40;;;;;;;;;;4973888;28;20487;-70
2022/10/16 05:58:45;;;;;;;7.07;2.83;;;;;;;;;;4974442;28;20356;-71
2022/10/16 06:01:12;;;;;;;7.95;3.60;;;;;;;;;;4971826;28;20015;-70
2022/10/16 06:03:38;;;;;;;9.82;2.33;;;;;;;;;;4972662;28;20038;-71
2022/10/16 06:06:09;;;;;;;7.03;2.75;;;;;;;;;;4969081;28;20039;-72
2022/10/16 06:08:35;;;;;;;6.63;2.47;;;;;;;;;;4973566;28;20055;-71
2022/10/16 06:11:08;;;;;;;4.90;2.35;;;;;;;;;;4959777;28;20035;-70
2022/10/16 06:13:34;;;;;;;7.60;2.63;;;;;;;;;;4964399;28;20047;-72
2022/10/16 06:16:01;;;;;;;6.10;2.67;;;;;;;;;;4972252;28;20039;-71
2022/10/16 06:18:28;;;;;;;6.85;2.70;;;;;;;;;;4973872;28;20093;-71
2022/10/16 06:20:54;;;;;;;8.55;2.40;;;;;;;;;;4972324;28;22427;-72
2022/10/16 06:23:20;;;;;;;9.48;2.25;;;;;;;;;;4974571;28;20031;-71
2022/10/16 06:25:46;;;;;;;4.68;2.00;;;;;;;;;;4970476;28;20046;-71
2022/10/16 06:28:13;;;;;;;5.20;2.20;;;;;;;;;;4971287;28;20039;-71
2022/10/16 06:30:39;;;;;;;8.98;2.08;;;;;;;;;;4971169;28;20035;-72
2022/10/16 06:33:05;;;;;;;10.70;2.40;;;;;;;;;;4974471;28;20039;-73
2022/10/16 06:35:31;;;;;;;4.78;2.38;;;;;;;;;;4970483;28;20403;-71
2022/10/16 06:37:58;;;;;;;6.88;2.15;;;;;;;;;;4974020;28;20412;-71
2022/10/16 06:40:24;;;;;;;6.60;2.47;;;;;;;;;;4971658;28;20023;-70
2022/10/16 06:42:51;;;;;;;5.45;2.03;;;;;;;;;;4971614;28;20093;-71
2022/10/16 06:45:17;;;;;;;8.95;3.10;;;;;;;;;;4961036;28;20038;-72
2022/10/16 06:47:43;;;;;;;9.02;2.47;;;;;;;;;;4954885;28;20105;-72
2022/10/16 06:50:09;;;;;;;4.45;2.22;;;;;;;;;;4955434;28;20050;-72
2022/10/16 06:52:35;;;;;;;4.88;2.20;;;;;;;;;;4955664;28;20043;-70
2022/10/16 06:55:02;;;;;;;5.78;2.67;;;;;;;;;;4953771;28;20514;-71
2022/10/16 06:57:29;;;;;;;18.42;11.65;;;;;;;;;;4956228;28;20039;-71
2022/10/16 06:59:55;;;;;;;10.77;2.40;;;;;;;;;;4955178;28;20520;-70
2022/10/16 07:02:21;;;;;;;3.83;2.10;;;;;;;;;;4965121;28;20035;-70
2022/10/16 07:04:47;;;;;;;9.13;2.25;;;;;;;;;;4972268;28;20031;-70
2022/10/16 07:07:13;;;;;;;6.30;2.10;;;;;;;;;;4972904;28;20045;-70
2022/10/16 07:09:39;;;;;;;5.22;2.45;;;;;;;;;;4954499;28;20046;-71
2022/10/16 07:12:05;;;;;;;9.50;2.20;;;;;;;;;;4971615;28;20078;-71
2022/10/16 07:14:31;;;;;;;6.47;2.15;;;;;;;;;;4971211;28;20054;-70
2022/10/16 07:16:57;;;;;;;10.18;3.67;;;;;;;;;;4972988;28;20510;-71
2022/10/16 07:19:25;;;;;;;5.82;2.75;;;;;;;;;;4972440;28;20037;-72
2022/10/16 07:21:51;;;;;;;8.90;2.65;;;;;;;;;;4972927;28;20428;-70
2022/10/16 07:24:17;;;;;;;10.48;2.72;;;;;;;;;;4967103;28;20420;-70
2022/10/16 07:26:44;;;;;;;6.78;2.05;;;;;;;;;;4972692;28;20355;-70
2022/10/16 07:29:14;;;;;;;6.18;2.45;;;;;;;;;;4967235;28;20046;-71
2022/10/16 07:31:41;;;;;;;6.75;2.00;;;;;;;;;;4972901;28;20026;-71
2022/10/16 07:34:07;;;;;;;6.68;2.40;;;;;;;;;;4972053;28;20085;-71
2022/10/16 07:36:33;;;;;;;7.80;2.60;;;;;;;;;;4971797;28;20367;-71
2022/10/16 07:38:59;;;;;;;8.82;2.35;;;;;;;;;;4970811;28;20487;-71
2022/10/16 07:41:25;;;;;;;4.93;2.05;;;;;;;;;;4971318;28;20030;-70
2022/10/16 07:43:52;;;;;;;7.10;2.63;;;;;;;;;;4967329;28;20022;-71
2022/10/16 07:46:19;;;;;;;9.05;2.80;;;;;;;;;;4971929;28;20360;-70
2022/10/16 07:48:47;;;;;;;6.90;2.20;;;;;;;;;;4975344;28;20034;-70
2022/10/16 07:51:14;;;;;;;5.78;2.50;;;;;;;;;;4972637;28;20038;-71
2022/10/16 07:53:40;;;;;;;5.75;2.33;;;;;;;;;;4972372;28;20428;-71
2022/10/16 07:56:07;;;;;;;12.00;2.65;;;;;;;;;;4971908;28;20432;-70
2022/10/16 07:58:34;;;;;;;4.85;2.63;;;;;;;;;;4962207;28;20045;-70
2022/10/16 08:01:03;;;;;;;7.25;3.03;;;;;;;;;;4969501;28;20031;-72
2022/10/16 08:03:29;;;;;;;17.58;8.70;;;;;;;;;;4966423;28;20031;-70
2022/10/16 08:05:57;;;;;;;7.72;2.40;;;;;;;;;;4965001;28;20038;-73
2022/10/16 08:08:23;;;;;;;11.43;2.95;;;;;;;;;;4968699;28;20027;-73
2022/10/16 08:10:49;;;;;;;7.88;1.95;;;;;;;;;;4970842;28;20113;-72
2022/10/16 08:13:15;;;;;;;4.60;1.90;;;;;;;;;;4986656;28;20050;-72
2022/10/16 08:15:45;;;;;;;7.28;1.80;;;;;;;;;;4968403;28;20392;-73
2022/10/16 08:18:11;;;;;;;8.20;1.75;;;;;;;;;;4971682;28;20442;-71
2022/10/16 08:20:38;;;;;;;4.05;1.63;;;;;;;;;;4966468;28;20031;-72
2022/10/16 08:23:04;;;;;;;7.35;2.22;;;;;;;;;;4962997;28;20070;-73
2022/10/16 08:25:30;;;;;;;12.80;1.80;;;;;;;;;;4982467;28;20038;-71
2022/10/16 08:27:56;;;;;;;6.30;1.50;;;;;;;;;;4960935;28;20037;-72
2022/10/16 08:30:23;;;;;;;12.02;2.17;;;;;;;;;;4968008;28;20158;-71
2022/10/16 08:32:49;;;;;;;9.75;2.28;;;;;;;;;;4970305;28;20043;-72
2022/10/16 08:35:15;;;;;;;6.65;1.73;;;;;;;;;;4967045;28;20097;-70
2022/10/16 08:37:42;;;;;;;7.85;2.28;;;;;;;;;;4958299;28;20049;-72
2022/10/16 08:40:16;;;;;;;7.80;2.85;;;;;;;;;;4968080;28;20035;-72
2022/10/16 08:42:42;;;;;;;7.35;1.50;;;;;;;;;;4972029;28;20126;-71
2022/10/16 08:45:12;;;;;;;8.18;1.48;;;;;;;;;;4962694;28;20435;-72
2022/10/16 08:48:04;;;;;;;6.97;1.40;;;;;;;;;;4968096;28;20182;-71
2022/10/16 08:50:32;;;;;;;6.70;1.23;;;;;;;;;;4959417;28;20042;-71
2022/10/16 08:52:58;;;;;;;10.60;2.55;;;;;;;;;;4970730;28;20035;-70
2022/10/16 08:55:43;;;;;;;6.47;1.50;;;;;;;;;;4966428;28;20086;-68
2022/10/16 08:58:35;;;;;;;11.20;1.90;;;;;;;;;;4970002;28;20490;-69
2022/10/16 09:01:03;;;;;;;9.80;1.88;;;;;;;;;;4971601;28;20039;-69
2022/10/16 09:03:44;;;;;;;12.00;2.05;;;;;;;;;;4969569;28;20061;-70
2022/10/16 09:06:28;;;;;;;10.68;2.33;;;;;;;;;;4969839;28;20081;-69
2022/10/16 09:08:54;;;;;;;10.77;2.13;;;;;;;;;;4968392;28;20042;-71
2022/10/16 09:11:23;;;;;;;16.15;1.60;;;;;;;;;;4970056;28;20030;-70
2022/10/16 09:13:59;;;;;;;7.65;1.83;;;;;;;;;;4968584;28;20054;-69
2022/10/16 09:16:25;;;;;;;9.27;2.50;;;;;;;;;;4967939;28;20037;-69
2022/10/16 09:19:10;;;;;;;8.63;1.65;;;;;;;;;;4970692;28;20042;-69
2022/10/16 09:21:38;;;;;;;12.80;2.13;;;;;;;;;;4970823;28;20039;-69
2022/10/16 09:24:12;;;;;;;10.25;1.60;;;;;;;;;;4964859;28;20483;-71
2022/10/16 09:26:38;;;;;;;10.48;2.10;;;;;;;;;;4970067;28;20039;-70
2022/10/16 09:29:04;;;;;;;10.32;1.85;;;;;;;;;;4961607;28;20050;-70
2022/10/16 09:31:30;;;;;;;8.27;1.77;;;;;;;;;;4983575;28;20158;-70
2022/10/16 09:34:04;;;;;;;13.30;1.95;;;;;;;;;;4970395;28;20034;-70
2022/10/16 09:36:33;;;;;;;13.25;2.33;;;;;;;;;;4970709;28;20030;-71
2022/10/16 09:39:06;;;;;;;12.30;2.50;;;;;;;;;;4968458;28;20045;-70
2022/10/16 09:41:34;;;;;;;22.92;4.13;;;;;;;;;;4968154;28;20480;-70
2022/10/16 09:44:02;;;;;;;11.35;2.53;;;;;;;;;;4969902;28;20049;-71
2022/10/16 09:46:29;;;;;;;12.60;2.88;;;;;;;;;;4970089;28;20027;-72
2022/10/16 09:48:57;;;;;;;12.68;2.63;;;;;;;;;;4970644;28;20117;-71
2022/10/16 09:51:35;;;;;;;14.00;2.25;;;;;;;;;;4972307;28;20030;-74
2022/10/16 09:54:21;;;;;;;9.60;1.98;;;;;;;;;;4977654;28;20034;-71
2022/10/16 09:56:51;;;;;;;10.05;2.05;;;;;;;;;;4959640;28;20043;-71
2022/10/16 09:59:23;;;;;;;13.50;2.65;;;;;;;;;;4971662;28;20109;-71
2022/10/16 10:01:56;;;;;;;14.13;2.13;;;;;;;;;;4974691;28;20022;-71
2022/10/16 10:04:25;;;;;;;9.43;1.73;;;;;;;;;;4969467;28;20035;-72
2022/10/16 10:06:56;;;;;;;13.23;2.00;;;;;;;;;;4974755;28;20098;-71
2022/10/16 10:09:24;;;;;;;26.38;15.93;;;;;;;;;;4969652;28;20143;-71
2022/10/16 10:11:51;;;;;;;10.65;1.70;;;;;;;;;;4974416;28;20598;-72
2022/10/16 10:14:17;;;;;;;14.68;2.28;;;;;;;;;;4970484;28;20055;-73
2022/10/16 10:16:43;;;;;;;9.93;2.15;;;;;;;;;;4968738;28;20027;-73
2022/10/16 10:19:15;;;;;;;14.15;2.50;;;;;;;;;;4966371;28;20031;-72
2022/10/16 10:21:41;;;;;;;12.90;2.83;;;;;;;;;;4972407;28;20034;-71
2022/10/16 10:24:11;;;;;;;15.52;2.88;;;;;;;;;;4972659;28;20034;-70
2022/10/16 10:26:38;;;;;;;15.93;2.33;;;;;;;;;;4986156;28;20031;-71
2022/10/16 10:29:14;;;;;;;12.18;2.58;;;;;;;;;;4972370;28;20050;-71
2022/10/16 10:32:01;;;;;;;14.23;2.65;;;;;;;;;;4964641;28;20479;-71
2022/10/16 10:34:43;;;;;;;15.43;2.53;;;;;;;;;;4970324;28;20043;-71
2022/10/16 10:37:21;;;;;;;12.90;2.58;;;;;;;;;;4972625;28;20034;-70
2022/10/16 10:39:53;;;;;;;14.50;2.15;;;;;;;;;;4971523;28;20046;-72
2022/10/16 10:42:19;;;;;;;;;;;;;;;;;;4970934;28;20373;-72
2022/10/16 10:45:14;;;;;;;16.35;2.30;;;;;;;;;;4967603;28;19948;-71
2022/10/16 10:47:48;;;;;;;12.75;2.13;;;;;;;;;;4961001;28;20500;-73
2022/10/16 10:50:21;;;;;;;14.57;2.28;;;;;;;;;;4972909;28;20031;-71
2022/10/16 10:52:51;;;;;;;15.07;2.47;;;;;;;;;;4987299;28;20031;-73
2022/10/16 10:55:25;;;;;;;14.07;2.35;;;;;;;;;;4970952;28;20030;-71
2022/10/16 10:58:03;;;;;;;11.75;2.50;;;;;;;;;;4971776;28;20035;-74
2022/10/16 11:00:29;;;;;;;14.25;2.40;;;;;;;;;;4971116;28;20082;-71
2022/10/16 11:03:06;;;;;;;12.05;2.58;;;;;;;;;;4970390;28;20034;-72
2022/10/16 11:05:35;;;;;;;13.13;1.90;;;;;;;;;;4967690;28;20137;-71
2022/10/16 11:08:04;;;;;;;10.88;2.60;;;;;;;;;;4972212;28;20050;-71
2022/10/16 11:10:50;;;;;;;12.63;2.33;;;;;;;;;;4970838;28;20062;-71
2022/10/16 11:13:19;;;;;;;14.02;2.22;;;;;;;;;;4970702;28;20443;-72
2022/10/16 11:15:47;;;;;;;14.77;2.20;;;;;;;;;;4968460;28;20031;-75
2022/10/16 11:18:17;;;;;;;14.68;2.30;;;;;;;;;;4970741;28;20129;-72
2022/10/16 11:20:54;;;;;;;10.93;2.22;;;;;;;;;;4967295;28;20112;-71
2022/10/16 11:23:39;;;;;;;17.42;2.42;;;;;;;;;;4970408;28;20027;-75
2022/10/16 11:26:12;;;;;;;11.68;2.15;;;;;;;;;;4970727;28;20034;-70
2022/10/16 11:28:40;;;;;;;16.13;2.53;;;;;;;;;;4971753;28;20139;-72
2022/10/16 11:31:14;;;;;;;11.05;1.85;;;;;;;;;;4971013;28;20026;-72
2022/10/16 11:33:41;;;;;;;10.00;1.92;;;;;;;;;;4970778;28;20046;-73
2022/10/16 11:36:20;;;;;;;15.15;2.38;;;;;;;;;;4979911;28;20031;-72
2022/10/16 11:38:53;;;;;;;16.27;3.13;;;;;;;;;;4970584;28;20408;-73
2022/10/16 11:41:38;;;;;;;12.23;2.25;;;;;;;;;;4965664;28;20027;-70
2022/10/16 11:44:04;;;;;;;13.30;2.95;;;;;;;;;;4971156;28;20045;-71
2022/10/16 11:46:31;;;;;;;17.08;2.63;;;;;;;;;;4965046;28;20042;-71
2022/10/16 11:49:18;;;;;;;19.58;3.05;;;;;;;;;;4959626;28;20094;-72
2022/10/16 11:51:53;;;;;;;13.77;2.38;;;;;;;;;;4957352;28;20392;-71
2022/10/16 11:54:29;;;;;;;13.18;2.53;;;;;;;;;;4962999;28;20058;-76
2022/10/16 11:56:58;;;;;;;20.10;2.63;;;;;;;;;;4970445;28;20476;-72
2022/10/16 11:59:29;;;;;;;14.23;2.47;;;;;;;;;;4970745;28;20054;-71
2022/10/16 12:02:15;;;;;;;21.33;4.40;;;;;;;;;;4972354;28;20109;-72
2022/10/16 12:04:50;;;;;;;16.33;2.60;;;;;;;;;;4967722;28;20065;-74
2022/10/16 12:07:20;;;;;;;17.33;2.42;;;;;;;;;;4970404;28;20043;-73
2022/10/16 12:09:47;;;;;;;15.50;2.35;;;;;;;;;;4971526;28;20031;-72
2022/10/16 12:12:45;;;;;;;15.10;2.75;;;;;;;;;;4971331;28;20121;-73
2022/10/16 12:15:23;;;;;;;11.80;2.13;;;;;;;;;;4956896;28;20113;-73
2022/10/16 12:17:50;;;;;;;12.70;2.50;;;;;;;;;;4959346;28;20034;-72
2022/10/16 12:20:19;;;;;;;12.07;2.40;;;;;;;;;;4979819;28;20042;-75
2022/10/16 12:23:14;;;;;;;15.35;2.60;;;;;;;;;;4958848;28;20026;-75
2022/10/16 12:25:46;;;;;;;11.43;2.03;;;;;;;;;;4974765;28;20077;-73
2022/10/16 12:28:15;;;;;;;14.33;2.03;;;;;;;;;;4969441;28;20043;-74
2022/10/16 12:30:42;;;;;;;13.98;3.42;;;;;;;;;;4969975;28;20290;-74
2022/10/16 12:33:23;;;;;;;19.35;3.03;;;;;;;;;;4987155;28;20423;-74
2022/10/16 12:35:49;;;;;;;23.60;3.00;;;;;;;;;;4972395;28;20027;-77
2022/10/16 12:38:21;;;;;;;17.35;2.50;;;;;;;;;;4971336;28;20458;-74
2022/10/16 12:40:47;;;;;;;;;;;;;;;;;;4964765;28;20041;-73
2022/10/16 12:43:25;;;;;;;15.98;2.85;;;;;;;;;;4969170;28;20337;-73
2022/10/16 12:46:09;;;;;;;15.82;3.03;;;;;;;;;;4971942;28;20046;-77
2022/10/16 12:48:36;;;;;;;11.73;2.08;;;;;;;;;;4985572;28;20480;-73
2022/10/16 12:51:21;;;;;;;11.07;2.05;;;;;;;;;;4969322;28;20030;-73
2022/10/16 12:53:47;;;;;;;19.92;3.22;;;;;;;;;;4969956;28;20047;-73
2022/10/16 12:56:39;;;;;;;23.77;2.63;;;;;;;;;;4971702;28;20031;-73
2022/10/16 12:59:05;;;;;;;12.35;2.17;;;;;;;;;;4969790;28;20551;-72
2022/10/16 13:01:42;;;;;;;17.70;3.10;;;;;;;;;;4970878;28;20035;-73
2022/10/16 13:04:40;;;;;;;16.45;2.33;;;;;;;;;;4970376;28;20464;-73
2022/10/16 13:07:21;;;;;;;13.30;2.40;;;;;;;;;;4959697;28;20085;-77
2022/10/16 13:09:57;;;;;;;17.27;3.58;;;;;;;;;;4969622;28;20027;-74
2022/10/16 13:12:38;;;;;;;16.92;2.83;;;;;;;;;;4969364;28;20468;-74
2022/10/16 13:15:19;;;;;;;13.20;2.60;;;;;;;;;;4970667;28;20047;-73
2022/10/16 13:18:04;;;;;;;11.77;2.30;;;;;;;;;;4970275;28;20092;-72
2022/10/16 13:20:56;;;;;;;10.00;2.03;;;;;;;;;;4974532;28;20392;-73
2022/10/16 13:23:26;;;;;;;10.45;1.70;;;;;;;;;;4975886;28;20109;-73
2022/10/16 13:26:10;;;;;;;14.60;2.28;;;;;;;;;;4972606;28;20114;-72
2022/10/16 13:28:38;;;;;;;14.95;3.00;;;;;;;;;;4975667;28;20118;-72
2022/10/16 13:31:04;;;;;;;16.88;2.80;;;;;;;;;;4975382;28;20031;-72
2022/10/16 13:33:35;;;;;;;7.95;1.98;;;;;;;;;;4975207;28;20031;-72
2022/10/16 13:36:02;;;;;;;11.55;2.42;;;;;;;;;;4973401;28;20126;-72
2022/10/16 13:38:30;;;;;;;13.35;2.50;;;;;;;;;;4973525;28;20039;-72
2022/10/16 13:41:15;;;;;;;11.98;2.42;;;;;;;;;;4975260;28;20031;-75
2022/10/16 13:43:46;;;;;;;16.65;2.53;;;;;;;;;;4974465;28;20030;-72
2022/10/16 13:46:14;;;;;;;15.75;2.30;;;;;;;;;;4966879;28;20683;-72
2022/10/16 13:48:40;;;;;;;10.63;2.10;;;;;;;;;;4974170;28;20093;-74
2022/10/16 13:51:06;;;;;;;13.07;2.45;;;;;;;;;;4973497;28;20038;-72
2022/10/16 13:53:33;;;;;;;14.82;2.35;;;;;;;;;;4975077;28;20450;-73
2022/10/16 13:56:00;;;;;;;17.23;2.50;;;;;;;;;;4970841;28;20034;-74
2022/10/16 13:58:26;;;;;;;13.80;2.00;;;;;;;;;;4974240;28;20035;-72
2022/10/16 14:00:58;;;;;;;18.25;2.78;;;;;;;;;;4973012;28;20388;-72
2022/10/16 14:03:25;;;;;;;10.20;1.45;;;;;;;;;;4961181;28;20031;-72
2022/10/16 14:05:53;;;;;;;12.38;2.90;;;;;;;;;;4974182;28;20031;-72
2022/10/16 14:08:19;;;;;;;9.00;2.15;;;;;;;;;;4974812;28;20069;-72
2022/10/16 14:10:49;;;;;;;15.07;3.42;;;;;;;;;;4974341;28;20029;-72
2022/10/16 14:13:17;;;;;;;13.60;2.13;;;;;;;;;;4968989;28;20518;-72
2022/10/16 14:15:47;;;;;;;16.63;3.60;;;;;;;;;;4975010;28;20056;-72
2022/10/16 14:18:22;;;;;;;21.60;3.47;;;;;;;;;;4974748;28;20031;-72
2022/10/16 14:20:48;;;;;;;15.45;2.55;;;;;;;;;;4974065;28;20027;-72
2022/10/16 14:23:21;;;;;;;15.13;2.75;;;;;;;;;;4973484;28;20054;-72
2022/10/16 14:25:46;;;;;;;;;;;;;;;;;;4975216;28;20380;-74
2022/10/16 14:28:17;;;;;;;12.90;1.83;;;;;;;;;;4971256;28;20151;-74
2022/10/16 14:31:09;;;;;;;14.13;1.98;;;;;;;;;;4969704;28;20046;-72
2022/10/16 14:33:36;;;;;;;12.98;2.08;;;;;;;;;;4960356;28;20051;-73
2022/10/16 14:36:11;;;;;;;16.00;2.75;;;;;;;;;;4974689;28;20031;-73
2022/10/16 14:38:38;;;;;;;13.43;2.25;;;;;;;;;;4972499;28;20388;-72
2022/10/16 14:41:04;;;;;;;9.20;2.10;;;;;;;;;;4972446;28;20471;-72
2022/10/16 14:43:30;;;;;;;18.50;2.28;;;;;;;;;;4970879;28;20050;-72
2022/10/16 14:45:57;;;;;;;16.15;2.25;;;;;;;;;;4971384;28;20428;-72
2022/10/16 14:48:24;;;;;;;17.42;2.55;;;;;;;;;;4969820;28;20071;-73
2022/10/16 14:50:50;;;;;;;15.63;2.65;;;;;;;;;;4971422;28;20551;-72
2022/10/16 14:53:16;;;;;;;11.75;2.30;;;;;;;;;;4987595;28;20073;-72